Track Терехова Влада

Time Latitude Longitude Accuracy (66% radius in meters) Altitude (meters) Speed (km/hour) Bearing (degrees) Battery (%) GPS flag
08:53:21 55.739205 37.297599 0 0 0 0 1 delete
08:53:20 55.739208 37.297607 0 0 0 0 1 delete
08:53:19 55.739210 37.297613 0 0 0 0 1 delete
08:53:18 55.739211 37.297615 0 0 0 0 1 delete
08:53:17 55.739211 37.297616 0 0 0 0 1 delete
08:53:16 55.739210 37.297617 0 0 0 0 1 delete
08:53:15 55.739210 37.297617 0 0 0 0 1 delete
08:53:14 55.739209 37.297617 0 0 0 0 1 delete
08:53:13 55.739208 37.297617 0 0 0 0 1 delete
08:53:12 55.739208 37.297617 0 0 0 0 1 delete
08:53:11 55.739208 37.297617 0 0 0 0 1 delete
08:53:10 55.739210 37.297619 0 0 0 0 1 delete
08:53:09 55.739212 37.297624 0 0 0 0 1 delete
08:53:08 55.739214 37.297631 0 0 0 0 1 delete
08:53:07 55.739216 37.297637 0 0 0 0 1 delete
08:53:06 55.739217 37.297641 0 0 0 0 1 delete
08:53:05 55.739218 37.297643 0 0 0 0 1 delete
08:53:04 55.739221 37.297646 0 0 0 0 1 delete
08:53:03 55.739222 37.297648 0 0 0 0 1 delete
08:53:02 55.739222 37.297650 0 0 0 0 1 delete
08:53:01 55.739222 37.297652 0 0 0 0 1 delete
08:53:00 55.739224 37.297654 0 0 0 0 1 delete
08:52:59 55.739226 37.297657 0 0 0 0 1 delete
08:52:58 55.739229 37.297658 0 0 0 0 1 delete
08:52:57 55.739231 37.297660 0 0 0 0 1 delete
08:52:56 55.739233 37.297660 0 0 0 0 1 delete
08:52:55 55.739234 37.297660 0 0 0 0 1 delete
08:52:54 55.739236 37.297659 0 0 0 0 1 delete
08:52:53 55.739236 37.297658 0 0 0 0 1 delete
08:52:52 55.739237 37.297657 0 0 0 0 1 delete
08:52:51 55.739237 37.297655 0 0 0 0 1 delete
08:52:50 55.739237 37.297655 0 0 0 0 1 delete
08:52:49 55.739236 37.297654 0 0 0 0 1 delete
08:52:48 55.739236 37.297655 0 0 0 0 1 delete
08:52:47 55.739235 37.297656 0 0 0 0 1 delete
08:52:46 55.739235 37.297657 0 0 0 0 1 delete
08:52:45 55.739234 37.297658 0 0 0 0 1 delete
08:52:44 55.739233 37.297659 0 0 0 0 1 delete
08:52:43 55.739232 37.297661 0 0 0 0 1 delete
08:52:42 55.739231 37.297664 0 0 0 0 1 delete
08:52:41 55.739232 37.297669 0 0 0 0 1 delete
08:52:40 55.739235 37.297675 0 0 0 0 1 delete
08:52:39 55.739238 37.297685 0 0 0 0 1 delete
08:52:38 55.739243 37.297699 0 0 0 0 1 delete
08:52:37 55.739251 37.297718 0 0 0 0 1 delete
08:52:36 55.739261 37.297736 0 0 0 0 1 delete
08:52:35 55.739269 37.297748 0 0 0 0 1 delete
08:52:34 55.739276 37.297759 0 0 0 0 1 delete
08:52:33 55.739286 37.297775 0 0 0 0 1 delete
08:52:32 55.739298 37.297800 0 0 0 0 1 delete